Portada
METAR-TAF:

METAR-TAF

Aeropuertos :

El Hierro, España

Aeropuerto de El Hierro

latitud: 27-49N, longitud: 017-53W, altitud: 32 m

Observación

El informe se hizo hace 30 minutos, a las 06:30 UTC
Viento 13 kt del norte-noroeste
Temperatura 20°C
Humedad 78%
Presión 1020 hPa
Visibilidad 10 km o más
Escasas nubes a una altura de 2500 ft

METAR: GCHI 150630Z 33013KT 9999 FEW025 20/16 Q1020

Hora: 08:00 (07:00 UTC)

Pronóstico

El informe se hizo hace 5 horas y 0 minutos, a las 02:00 UTC
Pronóstico válido del 15 a las 03 UTC al 16 a las 03 UTC
Viento 15 kt del norte
Visibilidad 10 km o más
Nubes dispersas a una altura de 2000 ft
Probabilidad 30% :
Temporalmente
del 15 a las 03 UTC al 15 a las 08 UTC
Cielo nuboso a una altura de 1400 ft

TAF: GCHI 150200Z 1503/1603 35015KT 9999 SCT020 TX24/1514Z TN20/1506Z PROB30 TEMPO 1503/1508 BKN014

Observaciones y pronósticos meteorológicos de más de 4000 aeropuertos (mensajes METAR y TAF).

Los puntos amarillos y rojos representan las estaciones disponibles.

Ponga el ratón en el punto deseado para ver el nombre de la estación.

Haga clic para ver las observaciones y los pronósticos meteorológicos.

Para cambiar el mapa : haga clic en los botones verdes con una cruz de color negro para hacer un zoom, en el botón verde con un guión para alejar o en las flechas verdes para mapas adyacentes.


METAR-TAF: